Fort Myers, FL (33903)

7:56 AM EDT on July 28, 2016 (GMT -0400)
K3PSP South | | Change Station

Elev 13 ft 26.69 °N, 81.93 °W | Updated 8 seconds ago

Clear
Clear
81.3 °F
Feels Like 84 °F
N
1.1
Wind Variable Wind from NE
Gusts 2.5 mph

Today
High -- | Low -- °F
--% Chance of Precip.
Yesterday
High -- | Low -- °F
Precip. -- in
Pressure 30.07 in
Visibility 10.0 miles
Clouds Clear
Heat Index 84 °F
Dew Point 67 °F
Humidity 62%
Rainfall 0.00 in
Snow Depth Not available.
6:50 AM 8:17 PM
Waning Crescent, 33% visible
METAR KFMY 281153Z 00000KT 10SM CLR 26/24 A3006 RMK AO2 SLP181 T02610244 10267 20250 53008
Pressure 30.07 in
Visibility 10.0 miles
Clouds Clear
Heat Index 84 °F
Dew Point 67 °F
Humidity 62%
Rainfall 0.00 in
Snow Depth Not available.
6:50 AM 8:17 PM
Waning Crescent, 33% visible
METAR KFMY 281153Z 00000KT 10SM CLR 26/24 A3006 RMK AO2 SLP181 T02610244 10267 20250 53008

10-Day Weather Forecast

Almanac

Astronomy

Jul. 28, 2016 Rise Set
Actual Time
Civil Twilight
Nautical Twilight
Astronomical Twilight
Moon
Length of Visible Light
Length of Day
Tomorrow will be .
, % of the Moon is Illuminated

Today's Extremes

State Highs State Lows

Community

WunderPhotos

Upload Photos

1,928,096 photos uploaded!

WunderBlog® & News

Nearby

Air Quality

  Air Quality AQ Index Pollutant
Not available.

Snow Depth

Station Depth Elevation

Earthquake Activity

City Distance Mag. Time & Date
Minimum magnitude displayed is 2.5.

Coastal Water Temperatures

Place Temperature

Stations

Nearby Weather Stations

Station Location Temp. Windchill Dew Point Humidity Wind Precip. Elev Updated Type
                   

Watches & Warnings

There are currently no watches in effect.